Rehoboth Bay Milton DE USA current weather conditions

sailwx.info

Wind from 030 at 8 knots gusting 9

Air temperature 6.1° C
Dewpoint 5.0° C

Last reported at 2019-Nov-17 22:05 UTC.
Time now 2019-Nov-17 22:35 UTC

Location: N 38°41' W 075°15'.
View on Google Maps.

See reports from other nearby stations

  
Tides and Currents Weather Stations Pressure Air Temp Water Temp Dewpoint Dewpoint Depression Visibility Wind Speed Wind Dir Waves Ship Positions
date/time (UTC)wind fromknots sea level pressurealtimeterstation pressurevisibilityair tempwater tempwave heightnotes
2019-Nov-17 22:05 030 8 gusting 9 6.1
2019-Nov-17 22:00 022 6 gusting 8 6.1
2019-Nov-17 21:55 028 7 gusting 10 6.1
2019-Nov-17 21:50 031 7 gusting 10 6.1
2019-Nov-17 21:45 034 7 gusting 11 6.2
2019-Nov-17 21:40 021 7 gusting 11 6.1
2019-Nov-17 21:35 035 8 gusting 10 6.2
2019-Nov-17 21:30 028 7 gusting 11 6.2
2019-Nov-17 21:25 035 6 gusting 10 6.2
2019-Nov-17 21:20 023 7 gusting 11 6.2
2019-Nov-17 21:15 031 6 gusting 9 6.2
2019-Nov-17 21:10 033 8 gusting 12 6.2
2019-Nov-17 21:05 036 8 gusting 13 6.3
2019-Nov-17 21:00 022 7 gusting 11 6.3
2019-Nov-17 20:55 035 6 gusting 8 6.3
2019-Nov-17 20:50 032 7 gusting 9 6.3
2019-Nov-17 20:45 029 7 gusting 11 6.3
2019-Nov-17 20:40 032 6 gusting 11 6.3
2019-Nov-17 20:35 031 8 gusting 10 6.3
2019-Nov-17 20:30 018 5 gusting 8 6.3
2019-Nov-17 20:25 029 8 gusting 10 6.3
2019-Nov-17 20:20 035 7 gusting 9 6.4
2019-Nov-17 20:15 031 6 gusting 9 6.3
2019-Nov-17 20:10 033 6 gusting 9 6.3
2019-Nov-17 20:05 029 8 gusting 12 6.2
2019-Nov-17 20:00 027 6 gusting 11 6.2
2019-Nov-17 19:55 029 7 gusting 10 6.2
2019-Nov-17 19:50 038 8 gusting 14 6.1
2019-Nov-17 19:45 028 6 gusting 10 6.1
2019-Nov-17 19:40 039 6 gusting 10 6.0
2019-Nov-17 19:35 023 7 gusting 13 5.9
2019-Nov-17 19:30 027 7 gusting 11 5.9
2019-Nov-17 19:25 028 5 gusting 7 5.9
2019-Nov-17 19:20 030 7 gusting 11 5.8
2019-Nov-17 19:15 032 7 gusting 10 5.8
2019-Nov-17 19:10 028 7 gusting 10 5.7
2019-Nov-17 19:05 020 7 gusting 11 5.6
2019-Nov-17 19:00 033 7 gusting 10 5.6
2019-Nov-17 18:55 023 7 gusting 9 5.6
2019-Nov-17 18:50 013 7 gusting 10 5.7
2019-Nov-17 18:45 023 7 gusting 11 5.7
2019-Nov-17 18:40 027 8 gusting 11 5.7
2019-Nov-17 18:35 008 6 gusting 8 5.8
2019-Nov-17 18:30 019 8 gusting 13 5.8
2019-Nov-17 18:25 015 6 gusting 11 5.8
2019-Nov-17 18:20 024 7 gusting 10 5.8
2019-Nov-17 18:15 028 7 gusting 10 5.8
2019-Nov-17 18:10 032 8 gusting 14 5.7
2019-Nov-17 18:05 029 6 gusting 9 5.7
2019-Nov-17 18:00 030 7 gusting 10 5.7
2019-Nov-17 17:55 035 7 gusting 9 5.7
2019-Nov-17 17:50 017 5 gusting 8 5.7
2019-Nov-17 17:45 029 6 gusting 9 5.6
2019-Nov-17 17:40 024 6 gusting 9 5.6
2019-Nov-17 17:35 026 6 gusting 9 5.5
2019-Nov-17 17:30 030 8 gusting 12 5.4
2019-Nov-17 17:25 024 8 gusting 11 5.4
2019-Nov-17 17:20 033 8 gusting 11 5.4
2019-Nov-17 17:15 030 8 gusting 12 5.3
2019-Nov-17 17:10 028 7 gusting 10 5.2
2019-Nov-17 17:05 024 9 gusting 12 5.2
2019-Nov-17 17:00 033 8 gusting 12 5.3
2019-Nov-17 16:55 024 6 gusting 9 5.2
2019-Nov-17 16:50 022 8 gusting 12 5.1
2019-Nov-17 16:45 027 8 gusting 10 5.0
2019-Nov-17 16:40 022 7 gusting 10 4.9
2019-Nov-17 16:35 022 7 gusting 10 4.8
2019-Nov-17 16:30 030 7 gusting 10 4.8
2019-Nov-17 16:25 021 7 gusting 11 4.7
2019-Nov-17 16:20 025 9 gusting 13 4.5
2019-Nov-17 16:15 029 8 gusting 12 4.5
2019-Nov-17 16:10 021 7 gusting 10 4.4
2019-Nov-17 16:05 027 7 gusting 11 4.4
2019-Nov-17 16:00 027 6 gusting 9 4.5
2019-Nov-17 15:55 033 7 gusting 9 4.3
2019-Nov-17 15:50 027 6 gusting 8 4.2
2019-Nov-17 15:45 030 8 gusting 12 4.1
2019-Nov-17 15:40 030 7 gusting 9 4.1
2019-Nov-17 15:35 026 6 gusting 10 3.9
2019-Nov-17 15:30 011 7 gusting 11 3.9
2019-Nov-17 15:25 032 8 gusting 12 3.8
2019-Nov-17 15:20 022 8 gusting 13 3.7
2019-Nov-17 15:15 029 8 gusting 10 3.7
2019-Nov-17 15:10 033 8 gusting 12 3.6
2019-Nov-17 15:05 030 9 gusting 13 3.7
2019-Nov-17 15:00 017 9 gusting 11 3.6
2019-Nov-17 14:55 027 9 gusting 13 3.5
2019-Nov-17 14:50 025 9 gusting 12 3.5
2019-Nov-17 14:45 031 8 gusting 9 3.4
2019-Nov-17 14:40 021 7 gusting 11 3.3
2019-Nov-17 14:35 024 10 gusting 15 3.2
2019-Nov-17 14:30 021 9 gusting 12 3.3
2019-Nov-17 14:25 031 9 gusting 12 3.2
2019-Nov-17 14:20 031 7 gusting 12 3.2
2019-Nov-17 14:15 031 9 gusting 14 3.1
2019-Nov-17 14:10 029 8 gusting 12 3.1
2019-Nov-17 14:05 027 8 gusting 11 3.0
2019-Nov-17 14:00 033 8 gusting 12 2.9
2019-Nov-17 13:55 029 7 gusting 11 2.9
2019-Nov-17 13:50 026 7 gusting 10 2.8
2019-Nov-17 13:45 025 8 gusting 11 2.8
2019-Nov-17 13:40 024 7 gusting 10 2.8
2019-Nov-17 13:35 024 8 gusting 13 2.8
2019-Nov-17 13:30 035 9 gusting 12 2.8
2019-Nov-17 13:25 028 9 gusting 12 2.9
2019-Nov-17 13:20 028 8 gusting 10 2.8
2019-Nov-17 13:15 016 8 gusting 12 2.8
2019-Nov-17 13:10 024 8 gusting 13 2.9
2019-Nov-17 13:05 022 9 gusting 12 2.9
2019-Nov-17 13:00 035 7 gusting 10 2.9
2019-Nov-17 12:55 034 7 gusting 11 2.9
2019-Nov-17 12:50 028 7 gusting 11 2.8
2019-Nov-17 12:45 029 7 gusting 12 2.8
2019-Nov-17 12:40 026 7 gusting 11 2.8
2019-Nov-17 12:35 019 8 gusting 10 2.8
2019-Nov-17 12:30 033 8 gusting 11 2.8
2019-Nov-17 12:25 034 9 gusting 15 2.8
2019-Nov-17 12:20 034 6 gusting 9 2.8
2019-Nov-17 12:15 019 8 gusting 10 2.7
2019-Nov-17 12:10 026 8 gusting 10 2.7
2019-Nov-17 12:05 033 9 gusting 13 2.6
2019-Nov-17 12:00 024 7 gusting 12 2.6
2019-Nov-17 11:55 027 7 gusting 10 2.6
2019-Nov-17 11:50 023 8 gusting 10 2.6
2019-Nov-17 11:45 035 7 gusting 12 2.6
2019-Nov-17 11:40 022 7 gusting 10 2.6
2019-Nov-17 11:35 035 8 gusting 10 2.6
2019-Nov-17 11:30 022 8 gusting 13 2.6
2019-Nov-17 11:25 028 6 gusting 8 2.6
2019-Nov-17 11:20 034 8 gusting 11 2.7
2019-Nov-17 11:15 026 7 gusting 10 2.7
2019-Nov-17 11:10 024 6 gusting 9 2.7
2019-Nov-17 11:05 024 7 gusting 10 2.8
2019-Nov-17 11:00 022 7 gusting 11 2.8
2019-Nov-17 10:55 029 6 gusting 9 2.8
2019-Nov-17 10:50 025 5 gusting 7 2.9
2019-Nov-17 10:45 029 7 gusting 9 3.0
2019-Nov-17 10:40 032 8 gusting 10 3.0
2019-Nov-17 10:35 031 6 gusting 9 3.1
2019-Nov-17 10:30 021 8 gusting 12 3.2
2019-Nov-17 10:25 029 7 gusting 10 3.2
2019-Nov-17 10:20 020 6 gusting 7 3.2
2019-Nov-17 10:15 025 7 gusting 11 3.1
2019-Nov-17 10:10 022 6 gusting 9 2.9
2019-Nov-17 10:05 019 6 gusting 8 2.8
2019-Nov-17 10:00 026 4 gusting 7 2.6
2019-Nov-17 09:55 027 7 gusting 9 2.6
2019-Nov-17 09:50 033 6 gusting 9 2.6
2019-Nov-17 09:45 021 7 gusting 9 2.7
2019-Nov-17 09:40 017 7 gusting 10 2.8
2019-Nov-17 09:35 032 5 gusting 8 2.9
2019-Nov-17 09:30 029 6 gusting 9 2.9
2019-Nov-17 09:25 022 6 gusting 8 2.9
2019-Nov-17 09:20 024 5 gusting 7 2.9
2019-Nov-17 09:15 021 6 gusting 9 2.9
2019-Nov-17 09:10 017 6 gusting 9 3.0
2019-Nov-17 09:05 032 6 gusting 8 3.1
2019-Nov-17 09:00 027 7 gusting 9 3.2
2019-Nov-17 08:55 029 7 gusting 10 3.3
2019-Nov-17 08:50 039 8 gusting 10 3.4
2019-Nov-17 08:45 031 8 gusting 10 3.7
2019-Nov-17 08:40 035 6 gusting 9 4.0
2019-Nov-17 08:35 032 5 gusting 7 4.1
2019-Nov-17 08:30 027 6 gusting 9 4.1
2019-Nov-17 08:25 020 5 gusting 8 4.0
2019-Nov-17 08:20 025 6 gusting 8 3.9
2019-Nov-17 08:15 021 4 gusting 7 3.8
2019-Nov-17 08:10 019 5 gusting 8 3.9
2019-Nov-17 08:05 029 5 gusting 7 3.9
2019-Nov-17 08:00 022 6 gusting 9 3.8
2019-Nov-17 07:55 024 4 gusting 6 3.8
2019-Nov-17 07:50 012 5 gusting 7 3.9
2019-Nov-17 07:45 025 5 gusting 8 3.9
2019-Nov-17 07:40 019 5 gusting 8 4.0
2019-Nov-17 07:35 019 6 gusting 9 4.0
2019-Nov-17 07:30 013 6 gusting 8 4.1
2019-Nov-17 07:25 015 6 gusting 10 4.2
2019-Nov-17 07:20 026 6 gusting 10 4.3
2019-Nov-17 07:15 017 6 gusting 9 4.5
2019-Nov-17 07:10 015 5 gusting 8 5.3
2019-Nov-17 07:05 028 7 gusting 9 6.9
2019-Nov-17 07:00 045 9 gusting 12 6.8
2019-Nov-17 06:55 044 7 gusting 9 6.8
2019-Nov-17 06:50 048 8 gusting 11 6.8
2019-Nov-17 06:45 046 11 gusting 15 6.7
2019-Nov-17 06:40 055 11 gusting 15 6.7
2019-Nov-17 06:35 047 11 gusting 15 6.7
2019-Nov-17 06:30 043 10 gusting 13 6.6
2019-Nov-17 06:25 046 9 gusting 12 6.6
2019-Nov-17 06:20 050 8 gusting 10 6.6
2019-Nov-17 06:15 055 10 gusting 14 6.7
2019-Nov-17 06:10 048 9 gusting 13 6.8
2019-Nov-17 06:05 058 10 gusting 14 6.8
2019-Nov-17 06:00 052 10 gusting 12 6.7
2019-Nov-17 05:55 056 9 gusting 12 6.7
2019-Nov-17 05:50 050 9 gusting 11 6.6
2019-Nov-17 05:45 046 8 gusting 9 6.7
2019-Nov-17 05:40 056 10 gusting 13 6.8
2019-Nov-17 05:35 058 11 gusting 14 6.8
2019-Nov-17 05:30 048 9 gusting 12 6.8
2019-Nov-17 05:25 049 11 gusting 14 7.0
2019-Nov-17 05:20 053 11 gusting 16 7.0
2019-Nov-17 05:15 052 10 gusting 12 7.1
2019-Nov-17 05:10 049 10 gusting 13 6.9
2019-Nov-17 05:05 047 10 gusting 12 6.9
2019-Nov-17 05:00 047 10 gusting 13 6.9
2019-Nov-17 04:55 052 11 gusting 14 7.0
2019-Nov-17 04:50 050 9 gusting 12 7.0
2019-Nov-17 04:45 047 10 gusting 12 7.0
2019-Nov-17 04:40 050 10 gusting 15 6.9
2019-Nov-17 04:35 047 12 gusting 15 6.8
2019-Nov-17 04:30 043 11 gusting 14 6.8
2019-Nov-17 04:25 047 13 gusting 17 6.9
2019-Nov-17 04:20 043 9 gusting 11 7.0
2019-Nov-17 04:15 057 9 gusting 12 7.0
2019-Nov-17 04:10 040 10 gusting 15 7.0
2019-Nov-17 04:05 040 10 gusting 12 6.9
2019-Nov-17 04:00 040 11 gusting 15 7.0
2019-Nov-17 03:55 048 11 gusting 15 7.0
2019-Nov-17 03:50 049 11 gusting 15 6.9
2019-Nov-17 03:45 046 10 gusting 15 6.8
2019-Nov-17 03:40 048 9 gusting 13 6.7
2019-Nov-17 03:35 049 9 gusting 11 6.8
2019-Nov-17 03:30 054 12 gusting 16 6.8
2019-Nov-17 03:25 052 12 gusting 17 6.7
2019-Nov-17 03:20 042 12 gusting 16 6.7
2019-Nov-17 03:15 051 11 gusting 15 6.6
2019-Nov-17 03:10 044 12 gusting 15 6.6
2019-Nov-17 03:05 049 12 gusting 15 6.6
2019-Nov-17 03:00 046 14 gusting 18 6.9
2019-Nov-17 02:55 051 11 gusting 16 6.9
2019-Nov-17 02:50 055 12 gusting 16 7.0
2019-Nov-17 02:45 051 12 gusting 13 7.0
2019-Nov-17 02:40 050 12 gusting 15 7.0
2019-Nov-17 02:35 045 12 gusting 17 6.9
2019-Nov-17 02:30 045 12 gusting 17 6.9
2019-Nov-17 02:25 047 15 gusting 20 6.8
2019-Nov-17 02:20 053 13 gusting 18 6.8
2019-Nov-17 02:15 048 16 gusting 21 6.9
2019-Nov-17 02:10 042 11 gusting 16 6.9
2019-Nov-17 02:05 049 11 gusting 15 6.8
2019-Nov-17 02:00 056 10 gusting 13 6.8
2019-Nov-17 01:55 057 11 gusting 17 6.8
2019-Nov-17 01:50 050 10 gusting 15 6.7
2019-Nov-17 01:45 055 11 gusting 16 6.6
2019-Nov-17 01:40 041 9 gusting 13 6.7
2019-Nov-17 01:35 032 10 gusting 15 6.8
2019-Nov-17 01:30 051 13 gusting 17 6.9
2019-Nov-17 01:25 053 14 gusting 20 6.8
2019-Nov-17 01:20 051 10 gusting 13 6.6
2019-Nov-17 01:15 039 11 gusting 14 6.5
2019-Nov-17 01:10 039 10 gusting 13 6.4
2019-Nov-17 01:05 039 11 gusting 15 6.4
2019-Nov-17 01:00 038 12 gusting 15 6.3
2019-Nov-17 00:55 046 10 gusting 16 6.3
2019-Nov-17 00:50 036 10 gusting 13 6.2
2019-Nov-17 00:45 043 11 gusting 14 6.3
2019-Nov-17 00:40 042 9 gusting 12 6.3
2019-Nov-17 00:35 041 11 gusting 14 6.3
2019-Nov-17 00:30 045 10 gusting 15 6.3
2019-Nov-17 00:25 040 9 gusting 14 5.9
2019-Nov-17 00:20 035 7 gusting 12 5.6
2019-Nov-17 00:15 021 6 gusting 8 5.6
2019-Nov-17 00:10 033 6 gusting 8 5.7
2019-Nov-17 00:05 028 6 gusting 10 5.8
2019-Nov-17 00:00 035 9 gusting 11 6.0
2019-Nov-16 23:55 036 9 gusting 12 6.0
2019-Nov-16 23:50 037 10 gusting 12 6.0
2019-Nov-16 23:45 042 9 gusting 12 6.0
2019-Nov-16 23:40 036 8 gusting 11 5.8
2019-Nov-16 23:35 035 8 gusting 11 5.8
2019-Nov-16 23:30 036 11 gusting 15 5.7
2019-Nov-16 23:25 034 8 gusting 12 5.7
2019-Nov-16 23:20 038 10 gusting 14 5.7
2019-Nov-16 23:15 039 10 gusting 14 5.7
2019-Nov-16 23:10 035 10 gusting 15 5.7
2019-Nov-16 23:05 034 7 gusting 10 5.8
2019-Nov-16 23:00 040 10 gusting 13 5.8
2019-Nov-16 22:55 045 10 gusting 15 5.8
2019-Nov-16 22:50 035 10 gusting 12 5.7
2019-Nov-16 22:45 050 12 gusting 16 5.7
2019-Nov-16 22:40 041 12 gusting 14 5.7
2019-Nov-16 22:35 039 11 gusting 16 5.6
2019-Nov-16 22:30 039 9 gusting 13 5.7
2019-Nov-16 22:25 030 11 gusting 16 5.7
2019-Nov-16 22:20 032 9 gusting 12 5.7
2019-Nov-16 22:15 048 11 gusting 14 5.6
2019-Nov-16 22:10 044 13 gusting 16 5.7
2019-Nov-16 22:05 036 9 gusting 12 5.7
2019-Nov-16 22:00 032 10 gusting 14 5.7
2019-Nov-16 21:55 043 10 gusting 16 5.8
2019-Nov-16 21:50 041 11 gusting 14 5.8
2019-Nov-16 21:45 046 11 gusting 16 5.8
2019-Nov-16 21:40 035 13 gusting 16 5.8
2019-Nov-16 21:35 039 11 gusting 14 5.8
2019-Nov-16 21:30 041 10 gusting 14 5.8
2019-Nov-16 21:25 035 9 gusting 13 5.9
2019-Nov-16 21:20 036 9 gusting 11 6.0
2019-Nov-16 21:15 028 10 gusting 12 6.0
2019-Nov-16 21:10 038 12 gusting 16 6.0
2019-Nov-16 21:05 041 12 gusting 17 6.0
2019-Nov-16 21:00 029 9 gusting 14 6.0
2019-Nov-16 20:55 042 11 gusting 13 6.0
2019-Nov-16 20:50 040 12 gusting 15 6.0
2019-Nov-16 20:45 043 14 gusting 17 6.0
2019-Nov-16 20:40 041 9 gusting 13 5.9
2019-Nov-16 20:35 045 11 gusting 15 5.9
2019-Nov-16 20:30 037 10 gusting 12 6.0
2019-Nov-16 20:25 035 12 gusting 17 6.0
2019-Nov-16 20:20 035 12 gusting 18 6.0
2019-Nov-16 20:15 043 13 gusting 17 6.0
2019-Nov-16 20:10 051 11 gusting 16 6.0
2019-Nov-16 20:05 035 14 gusting 17 6.0
2019-Nov-16 20:00 040 13 gusting 20 6.0
2019-Nov-16 19:55 036 13 gusting 17 6.1
2019-Nov-16 19:50 045 13 gusting 18 6.1
2019-Nov-16 19:45 048 13 gusting 17 6.2
2019-Nov-16 19:40 056 13 gusting 18 6.2
2019-Nov-16 19:35 030 12 gusting 17 6.1
2019-Nov-16 19:30 046 13 gusting 17 6.2
2019-Nov-16 19:25 037 14 gusting 18 6.3
2019-Nov-16 19:20 046 11 gusting 15 6.4
2019-Nov-16 19:15 039 13 gusting 19 6.3
2019-Nov-16 19:10 028 14 gusting 17 6.2
2019-Nov-16 19:05 043 14 gusting 18 6.3
2019-Nov-16 19:00 049 12 gusting 17 6.3
2019-Nov-16 18:55 039 11 gusting 16 6.2
2019-Nov-16 18:50 039 12 gusting 16 6.3
2019-Nov-16 18:45 042 9 gusting 11 6.5
2019-Nov-16 18:40 042 9 gusting 13 6.4
2019-Nov-16 18:35 046 10 gusting 13 6.3
2019-Nov-16 18:30 041 13 gusting 18 6.2
2019-Nov-16 18:25 037 14 gusting 22 6.2
2019-Nov-16 18:20 029 13 gusting 19 6.4
2019-Nov-16 18:15 047 14 gusting 20 6.6
2019-Nov-16 18:10 051 14 gusting 19 6.7
2019-Nov-16 18:05 043 15 gusting 20 6.5
2019-Nov-16 18:00 046 16 gusting 21 6.6
2019-Nov-16 17:55 036 15 gusting 20 6.5
2019-Nov-16 17:50 043 15 gusting 22 6.5
2019-Nov-16 17:45 040 16 gusting 22 6.7
2019-Nov-16 17:40 050 14 gusting 17 6.9
2019-Nov-16 17:35 057 16 gusting 19 6.7
2019-Nov-16 17:30 047 15 gusting 19 6.8
2019-Nov-16 17:25 036 13 gusting 20 7.1
2019-Nov-16 17:20 046 14 gusting 18 6.7
2019-Nov-16 17:15 039 15 gusting 21 6.6
2019-Nov-16 17:10 042 12 gusting 17 6.9
2019-Nov-16 17:05 040 16 gusting 19 6.5
2019-Nov-16 17:00 042 15 gusting 19 6.6
2019-Nov-16 16:55 038 15 gusting 19 6.8
2019-Nov-16 16:50 044 13 gusting 21 6.6
2019-Nov-16 16:45 045 16 gusting 21 6.5
2019-Nov-16 16:40 036 16 gusting 20 7.0
2019-Nov-16 16:35 041 12 gusting 18 6.9
2019-Nov-16 16:30 036 15 gusting 18 6.8
2019-Nov-16 16:25 049 14 gusting 18 6.9
2019-Nov-16 16:20 049 11 gusting 15 6.7
2019-Nov-16 16:15 046 12 gusting 16 6.2
2019-Nov-16 16:10 039 14 gusting 19 6.1
2019-Nov-16 16:05 041 13 gusting 17 6.2
2019-Nov-16 16:00 040 17 gusting 21 6.3
2019-Nov-16 15:55 030 11 gusting 15 6.3
2019-Nov-16 15:50 043 12 gusting 15 6.2
2019-Nov-16 15:45 036 13 gusting 16 6.1
2019-Nov-16 15:40 032 13 gusting 17 6.2
2019-Nov-16 15:35 038 14 gusting 20 6.4
2019-Nov-16 15:30 047 11 gusting 17 6.2
2019-Nov-16 15:25 045 15 gusting 20 6.0
2019-Nov-16 15:20 041 11 gusting 18 6.0
2019-Nov-16 15:15 040 10 gusting 13 5.8
2019-Nov-16 15:10 036 12 gusting 16 5.6
2019-Nov-16 15:05 037 10 gusting 12 5.6
2019-Nov-16 15:00 039 8 gusting 11 5.5
2019-Nov-16 14:55 042 11 gusting 14 5.4
2019-Nov-16 14:50 031 10 gusting 12 5.4
2019-Nov-16 14:45 041 10 gusting 13 5.3
2019-Nov-16 14:40 035 11 gusting 14 5.3
2019-Nov-16 14:35 035 8 gusting 11 5.3
2019-Nov-16 14:30 032 12 gusting 17 5.2
2019-Nov-16 14:25 039 12 gusting 17 5.2
2019-Nov-16 14:20 033 10 gusting 14 5.2
2019-Nov-16 14:15 035 11 gusting 13 5.2
2019-Nov-16 14:10 030 11 gusting 13 5.1
2019-Nov-16 14:05 036 12 gusting 15 5.2
2019-Nov-16 14:00 037 9 gusting 11 5.3
2019-Nov-16 13:55 034 10 gusting 15 5.2
2019-Nov-16 13:50 032 9 gusting 13 5.2
2019-Nov-16 13:45 032 10 gusting 15 5.2
2019-Nov-16 13:40 030 10 gusting 16 5.2
2019-Nov-16 13:35 038 10 gusting 14 5.2
2019-Nov-16 13:30 032 10 gusting 15 5.2
2019-Nov-16 13:25 026 9 gusting 12 5.2
2019-Nov-16 13:20 037 9 gusting 14 5.2
2019-Nov-16 13:15 018 10 gusting 16 5.1
2019-Nov-16 13:10 031 10 gusting 15 5.0
2019-Nov-16 13:05 021 7 gusting 10 4.9
2019-Nov-16 13:00 034 9 gusting 12 4.9
2019-Nov-16 12:55 022 8 gusting 12 4.9
2019-Nov-16 12:50 028 9 gusting 12 4.8
2019-Nov-16 12:45 032 9 gusting 13 4.7
2019-Nov-16 12:40 032 8 gusting 11 4.6
2019-Nov-16 12:35 035 8 gusting 13 4.5
2019-Nov-16 12:30 035 8 gusting 12 4.5
2019-Nov-16 12:25 030 7 gusting 11 4.5
2019-Nov-16 12:20 031 8 gusting 14 4.5
2019-Nov-16 12:15 022 9 gusting 11 4.4
2019-Nov-16 12:10 024 8 gusting 10 4.4
2019-Nov-16 12:05 033 8 gusting 12 4.3
2019-Nov-16 12:00 028 7 gusting 10 4.3
2019-Nov-16 11:55 026 8 gusting 11 4.3
2019-Nov-16 11:50 031 8 gusting 13 4.3
2019-Nov-16 11:45 027 8 gusting 12 4.3
2019-Nov-16 11:40 026 9 gusting 13 4.3
2019-Nov-16 11:35 035 9 gusting 11 4.3
2019-Nov-16 11:30 022 9 gusting 14 4.2
2019-Nov-16 11:25 034 8 gusting 15 4.1
2019-Nov-16 11:20 028 8 gusting 11 4.2
2019-Nov-16 11:15 017 7 gusting 9 4.2
2019-Nov-16 11:10 027 7 gusting 11 4.2
2019-Nov-16 11:05 019 7 gusting 11 4.3
2019-Nov-16 11:00 027 7 gusting 12 4.2
2019-Nov-16 10:55 030 8 gusting 12 4.2
2019-Nov-16 10:50 028 8 gusting 11 4.2
2019-Nov-16 10:45 031 7 gusting 11 4.2
2019-Nov-16 10:40 032 7 gusting 10 4.3
2019-Nov-16 10:35 027 8 gusting 11 4.3
2019-Nov-16 10:30 030 8 gusting 11 4.3
2019-Nov-16 10:25 035 8 gusting 12 4.3
2019-Nov-16 10:20 022 7 gusting 9 4.3
2019-Nov-16 10:15 021 9 gusting 12 4.4
2019-Nov-16 10:10 027 8 gusting 11 4.4
2019-Nov-16 10:05 019 8 gusting 11 4.4
2019-Nov-16 10:00 032 8 gusting 12 4.5
2019-Nov-16 09:55 038 8 gusting 13 4.5
2019-Nov-16 09:50 036 9 gusting 14 4.5
2019-Nov-16 09:45 033 8 gusting 11 4.6
2019-Nov-16 09:40 036 9 gusting 11 4.6
2019-Nov-16 09:35 030 9 gusting 13 4.6
2019-Nov-16 09:30 026 9 gusting 12 4.7
2019-Nov-16 09:25 030 10 gusting 14 4.7
2019-Nov-16 09:20 031 9 gusting 13 4.7
2019-Nov-16 09:15 029 9 gusting 11 4.8
2019-Nov-16 09:10 028 9 gusting 14 4.7
2019-Nov-16 09:05 035 7 gusting 11 4.8
2019-Nov-16 09:00 028 10 gusting 12 4.9
2019-Nov-16 08:55 026 9 gusting 16 4.8
2019-Nov-16 08:50 029 8 gusting 11 4.9
2019-Nov-16 08:45 026 9 gusting 13 5.0
2019-Nov-16 08:40 030 11 gusting 16 5.0
2019-Nov-16 08:35 029 11 gusting 14 5.0
2019-Nov-16 08:30 037 10 gusting 14 5.0
2019-Nov-16 08:25 035 10 gusting 15 5.1
2019-Nov-16 08:20 035 10 gusting 13 5.1
2019-Nov-16 08:15 035 10 gusting 15 5.1
2019-Nov-16 08:10 022 10 gusting 19 5.2
2019-Nov-16 08:05 027 8 gusting 11 5.2
2019-Nov-16 08:00 031 7 gusting 9 5.2
2019-Nov-16 07:55 030 9 gusting 13 5.3
2019-Nov-16 07:50 028 9 gusting 12 5.4
2019-Nov-16 07:45 028 9 gusting 12 5.4
2019-Nov-16 07:40 038 8 gusting 10 5.4
2019-Nov-16 07:35 033 7 gusting 11 5.5
2019-Nov-16 07:30 030 9 gusting 12 5.5
2019-Nov-16 07:25 030 7 gusting 12 5.6
2019-Nov-16 07:20 033 7 gusting 12 5.7
2019-Nov-16 07:15 032 8 gusting 15 5.8
2019-Nov-16 07:10 039 7 gusting 9 5.9
2019-Nov-16 07:05 023 8 gusting 11 6.0
2019-Nov-16 07:00 026 8 gusting 11 6.1
2019-Nov-16 06:55 040 8 gusting 11 6.2
2019-Nov-16 06:50 028 8 gusting 12 6.3
2019-Nov-16 06:45 029 7 gusting 12 6.4
2019-Nov-16 06:40 025 9 gusting 12 6.5
2019-Nov-16 06:35 038 7 gusting 11 6.7
2019-Nov-16 06:30 026 7 gusting 11 6.9
2019-Nov-16 06:25 021 6 gusting 9 6.9
2019-Nov-16 06:20 024 7 gusting 10 7.0
2019-Nov-16 06:15 039 7 gusting 9 7.1
2019-Nov-16 06:10 036 6 gusting 9 7.1
2019-Nov-16 06:05 024 5 gusting 7 7.1
2019-Nov-16 06:00 022 4 gusting 7 7.0
2019-Nov-16 05:55 015 6 gusting 9 6.8
2019-Nov-16 05:50 029 3 gusting 4 6.3
2019-Nov-16 05:45 013 2 gusting 4 6.2
2019-Nov-16 05:40 026 2 gusting 5 5.9
2019-Nov-16 05:35 014 2 gusting 4 6.0
2019-Nov-16 05:30 005 1 gusting 3 6.0
2019-Nov-16 05:25 033 2 gusting 3 6.0
2019-Nov-16 05:20 016 2 gusting 4 5.9
2019-Nov-16 05:15 020 2 gusting 3 5.9
2019-Nov-16 05:10 359 1 gusting 3 5.8
2019-Nov-16 05:05 026 2 gusting 3 6.0
2019-Nov-16 05:00 341 1 gusting 4 5.9
2019-Nov-16 04:55 352 1 gusting 3 5.8
2019-Nov-16 04:50 344 1 gusting 2 5.8
2019-Nov-16 04:45 350 1 gusting 2 6.2
2019-Nov-16 04:40 038 2 gusting 4 6.0
2019-Nov-16 04:35 009 0 gusting 2 6.2
2019-Nov-16 04:30 052 1 gusting 2 6.3
2019-Nov-16 04:25 318 1 gusting 2 6.2
2019-Nov-16 04:20 233 0 gusting 1 6.0
2019-Nov-16 04:15 342 0 gusting 1 6.2
2019-Nov-16 04:10 263 0 gusting 1 5.9
2019-Nov-16 04:05 052 1 gusting 2 5.9
2019-Nov-16 04:00 289 1 gusting 1 5.7
2019-Nov-16 03:55 282 0 gusting 1 5.7
2019-Nov-16 03:50 276 0 gusting 1 5.8
2019-Nov-16 03:45 335 0 gusting 1 5.9
2019-Nov-16 03:40 093 0 gusting 0 5.6
2019-Nov-16 03:35 275 0 gusting 1 5.6
2019-Nov-16 03:30 277 0 gusting 1 5.6
2019-Nov-16 03:25 265 0 gusting 1 5.5
2019-Nov-16 03:20 280 0 gusting 1 5.5
2019-Nov-16 03:15 272 0 gusting 1 5.4
2019-Nov-16 03:10 258 0 gusting 0 5.5
2019-Nov-16 03:05 281 0 gusting 1 5.5
2019-Nov-16 03:00 293 0 gusting 1 5.6
2019-Nov-16 02:55 265 1 gusting 2 5.8
2019-Nov-16 02:50 310 0 gusting 1 5.6
2019-Nov-16 02:45 289 0 gusting 0 5.6
2019-Nov-16 02:40 227 0 gusting 0 5.6
2019-Nov-16 02:35 289 0 gusting 1 5.6
2019-Nov-16 02:30 307 0 gusting 1 5.4
2019-Nov-16 02:25 303 0 gusting 1 5.4
2019-Nov-16 02:20 289 0 gusting 1 5.1
2019-Nov-16 02:15 5.0
2019-Nov-16 02:10 5.0
2019-Nov-16 02:05 4.9
2019-Nov-16 02:00 5.0
2019-Nov-16 01:55 5.1
2019-Nov-16 01:50 5.2
2019-Nov-16 01:45 5.3
2019-Nov-16 01:40 351 0 gusting 1 5.4
2019-Nov-16 01:35 326 0 gusting 1 5.4
2019-Nov-16 01:30 305 0 gusting 1 5.4
2019-Nov-16 01:25 327 0 gusting 0 5.3
2019-Nov-16 01:20 357 0 gusting 0 5.3
2019-Nov-16 01:15 344 0 gusting 1 5.3
2019-Nov-16 01:10 310 0 gusting 1 5.2
2019-Nov-16 01:05 271 0 gusting 0 5.4
2019-Nov-16 01:00 340 0 gusting 0 5.6
2019-Nov-16 00:55 005 0 gusting 1 5.7
2019-Nov-16 00:50 346 0 gusting 0 5.7
2019-Nov-16 00:45 296 0 gusting 1 5.6
2019-Nov-16 00:40 279 0 gusting 0 5.7
2019-Nov-16 00:35 5.8
2019-Nov-16 00:30 279 0 gusting 0 5.8
2019-Nov-16 00:25 270 0 gusting 0 6.0
2019-Nov-16 00:20 288 0 gusting 0 6.0
2019-Nov-16 00:15 6.1
2019-Nov-16 00:10 6.1
2019-Nov-16 00:05 6.1
2019-Nov-16 00:00 253 0 gusting 0 6.1
2019-Nov-15 23:55 253 0 gusting 0 6.2
2019-Nov-15 23:50 260 0 gusting 0 6.2
2019-Nov-15 23:45 267 0 gusting 0 6.2
2019-Nov-15 23:40 273 0 gusting 0 6.4
2019-Nov-15 23:35 270 0 gusting 0 6.4
2019-Nov-15 23:30 274 0 gusting 1 6.6
2019-Nov-15 23:25 276 0 gusting 1 6.7
2019-Nov-15 23:20 256 1 gusting 1 6.8
2019-Nov-15 23:15 7.0
2019-Nov-15 23:10 340 0 gusting 0 7.2
2019-Nov-15 23:05 341 0 gusting 0 7.3
2019-Nov-15 23:00 344 0 gusting 1 7.4
2019-Nov-15 22:55 351 0 gusting 1 7.4
2019-Nov-15 22:50 338 1 gusting 1 7.5
2019-Nov-15 22:45 332 1 gusting 1 7.5
2019-Nov-15 22:40 010 0 gusting 1 7.6
2019-Nov-15 22:35 341 0 gusting 1 7.6
2019-Nov-15 22:30 296 0 gusting 1 7.6
2019-Nov-15 22:25 300 0 gusting 0 7.6
2019-Nov-15 22:20 7.6
2019-Nov-15 22:15 7.6
2019-Nov-15 22:10 7.6
2019-Nov-15 22:05 7.7
2019-Nov-15 22:00 7.8